createdAt,value
2022-12-26T00:01:44.964Z,34.03
2022-12-26T00:04:52.358Z,29.27
2022-12-26T00:07:17.528Z,28.67
2022-12-26T00:09:52.733Z,26.58
2022-12-26T00:12:28.015Z,41.77
2022-12-26T00:15:02.480Z,33.80
2022-12-26T00:17:37.465Z,30.75
2022-12-26T00:20:13.332Z,35.03
2022-12-26T00:22:50.517Z,28.35
2022-12-26T00:25:30.296Z,29.13
2022-12-26T00:28:04.487Z,31.17
2022-12-26T00:30:41.005Z,29.00
2022-12-26T00:33:15.752Z,29.98
2022-12-26T00:35:49.959Z,27.70
2022-12-26T00:38:27.111Z,32.30
2022-12-26T00:41:01.380Z,32.35
2022-12-26T00:43:37.269Z,26.70
2022-12-26T00:46:13.498Z,27.25
2022-12-26T00:48:49.747Z,26.45
2022-12-26T00:51:23.919Z,23.52
2022-12-26T00:54:01.316Z,27.45
2022-12-26T00:56:36.075Z,28.23
2022-12-26T00:59:10.269Z,22.70
2022-12-26T01:01:44.191Z,28.08
2022-12-26T01:04:19.073Z,29.05
2022-12-26T01:06:53.785Z,30.58
2022-12-26T01:09:31.330Z,31.80
2022-12-26T01:12:06.275Z,27.65
2022-12-26T01:14:39.985Z,27.90
2022-12-26T01:17:14.436Z,32.13
2022-12-26T01:19:51.409Z,31.80
2022-12-26T01:22:27.237Z,33.60
2022-12-26T01:25:04.788Z,30.67
2022-12-26T01:27:39.279Z,31.67
2022-12-26T01:30:14.797Z,29.40
2022-12-26T01:32:49.241Z,27.75
2022-12-26T01:35:23.221Z,35.15
2022-12-26T01:37:57.257Z,33.00
2022-12-26T01:40:34.286Z,36.65
2022-12-26T01:43:12.165Z,29.67
2022-12-26T01:45:46.567Z,33.00
2022-12-26T01:48:23.143Z,29.92
2022-12-26T01:50:58.568Z,32.65
2022-12-26T01:56:12.890Z,28.35
2022-12-26T01:58:49.411Z,29.50
2022-12-26T02:01:24.125Z,27.23
2022-12-26T02:04:10.340Z,29.60
2022-12-26T02:06:44.935Z,30.67
2022-12-26T02:09:19.266Z,29.25
2022-12-26T02:12:35.986Z,30.25
2022-12-26T02:14:52.500Z,26.90
2022-12-26T02:17:27.517Z,31.27
2022-12-26T02:20:06.431Z,29.55
2022-12-26T02:23:24.394Z,27.70
2022-12-26T02:26:32.165Z,32.78
2022-12-26T02:29:29.109Z,30.40
2022-12-26T02:32:09.741Z,25.63
2022-12-26T02:34:48.348Z,31.98
2022-12-26T02:37:27.929Z,25.83
2022-12-26T02:40:10.512Z,33.08
2022-12-26T02:42:50.036Z,25.83
2022-12-26T02:45:39.118Z,28.52
2022-12-26T02:48:17.102Z,27.48
2022-12-26T02:51:09.341Z,28.77
2022-12-26T02:54:01.053Z,27.25
2022-12-26T02:56:49.472Z,24.95
2022-12-26T02:59:56.315Z,26.13
2022-12-26T03:02:46.914Z,19.63
2022-12-26T03:05:37.613Z,24.88
2022-12-26T03:08:25.470Z,22.95
2022-12-26T03:11:12.397Z,26.40
2022-12-26T03:13:47.256Z,24.07
2022-12-26T03:16:34.375Z,28.15
2022-12-26T03:19:11.784Z,25.65
2022-12-26T03:21:50.035Z,24.65
2022-12-26T03:24:23.938Z,24.17
2022-12-26T03:26:55.386Z,26.60
2022-12-26T03:29:42.703Z,24.70
2022-12-26T03:32:18.576Z,23.75
2022-12-26T03:34:53.811Z,29.10
2022-12-26T03:37:48.012Z,26.10
2022-12-26T03:40:35.690Z,30.87
2022-12-26T03:43:26.740Z,27.20
2022-12-26T03:46:17.017Z,24.92
2022-12-26T03:49:07.922Z,26.02
2022-12-26T03:51:53.590Z,22.50
2022-12-26T03:54:48.816Z,22.67
2022-12-26T03:57:36.511Z,26.33
2022-12-26T04:00:24.861Z,24.40
2022-12-26T04:03:13.957Z,21.75
2022-12-26T04:06:01.179Z,26.20
2022-12-26T04:08:59.964Z,22.15
2022-12-26T04:11:49.023Z,21.87
2022-12-26T04:14:42.137Z,23.75
2022-12-26T04:17:32.795Z,23.15
2022-12-26T04:20:13.699Z,19.50
2022-12-26T04:23:00.925Z,20.02
2022-12-26T04:25:51.723Z,19.70
2022-12-26T04:28:41.335Z,16.75
2022-12-26T04:31:36.553Z,20.50
2022-12-26T04:34:24.540Z,16.90
2022-12-26T04:37:13.130Z,14.00
2022-12-26T04:40:00.449Z,12.60
2022-12-26T04:42:47.405Z,13.00
2022-12-26T04:45:25.407Z,12.40
2022-12-26T04:48:12.626Z,14.50
2022-12-26T04:50:53.475Z,12.65
2022-12-26T04:53:31.119Z,10.75
2022-12-26T04:56:05.424Z,10.60
2022-12-26T04:58:40.823Z,13.00
2022-12-26T05:01:39.254Z,15.23
2022-12-26T05:04:27.858Z,13.23
2022-12-26T05:07:14.999Z,11.15
2022-12-26T05:09:49.583Z,12.40
2022-12-26T05:12:24.328Z,12.30
2022-12-26T05:14:58.193Z,12.07
2022-12-26T05:17:47.458Z,14.05
2022-12-26T05:20:35.315Z,13.80
2022-12-26T05:23:23.234Z,12.05
2022-12-26T05:26:10.018Z,10.87
2022-12-26T05:28:47.289Z,13.40
2022-12-26T05:31:21.403Z,12.95
2022-12-26T05:34:08.633Z,13.95
2022-12-26T05:36:45.417Z,12.45
2022-12-26T05:39:20.019Z,12.75
2022-12-26T05:41:54.980Z,13.32
2022-12-26T05:44:29.417Z,12.35
2022-12-26T05:47:04.739Z,11.65
2022-12-26T05:49:42.002Z,12.35
2022-12-26T05:52:17.291Z,10.48
2022-12-26T05:54:51.181Z,12.10
2022-12-26T05:57:25.094Z,20.30
2022-12-26T05:59:58.977Z,10.02
2022-12-26T06:02:33.652Z,12.53
2022-12-26T06:05:11.330Z,10.60
2022-12-26T06:07:45.406Z,11.68
2022-12-26T06:10:20.982Z,9.95
2022-12-26T06:12:56.176Z,11.35
2022-12-26T06:15:30.032Z,12.65
2022-12-26T06:18:04.487Z,11.85
2022-12-26T06:20:45.060Z,10.30
2022-12-26T06:23:19.503Z,9.83
2022-12-26T06:25:58.327Z,11.00
2022-12-26T06:28:32.098Z,10.07
2022-12-26T06:31:06.682Z,9.65
2022-12-26T06:33:41.301Z,10.70
2022-12-26T06:36:19.245Z,10.63
2022-12-26T06:38:53.045Z,10.70
2022-12-26T06:41:27.474Z,9.90
2022-12-26T06:44:02.477Z,9.63
2022-12-26T06:46:37.280Z,10.63
2022-12-26T06:49:11.725Z,10.68
2022-12-26T06:51:48.583Z,12.63
2022-12-26T06:54:23.475Z,8.25
2022-12-26T06:56:58.289Z,8.13
2022-12-26T06:59:32.660Z,9.05
2022-12-26T07:02:07.070Z,10.20
2022-12-26T07:04:41.689Z,9.50
2022-12-26T07:07:18.863Z,9.93
2022-12-26T07:09:53.252Z,11.40
2022-12-26T07:12:28.487Z,8.63
2022-12-26T07:15:03.340Z,9.10
2022-12-26T07:17:37.611Z,9.57
2022-12-26T07:20:13.617Z,10.20
2022-12-26T07:25:25.350Z,8.70
2022-12-26T07:28:01.024Z,9.45
2022-12-26T07:30:36.398Z,13.20
2022-12-26T07:33:12.063Z,9.95
2022-12-26T07:35:46.542Z,12.55
2022-12-26T07:38:24.521Z,11.10
2022-12-26T07:40:59.260Z,10.40
2022-12-26T07:43:34.056Z,12.10
2022-12-26T07:46:08.785Z,11.60
2022-12-26T07:48:43.400Z,12.60
2022-12-26T07:51:19.248Z,10.70
2022-12-26T07:53:56.713Z,11.43
2022-12-26T07:56:32.997Z,9.45
2022-12-26T07:59:08.435Z,12.90
2022-12-26T08:01:43.843Z,9.90
2022-12-26T08:04:19.366Z,9.85
2022-12-26T08:06:53.513Z,9.70
2022-12-26T08:09:32.201Z,10.38
2022-12-26T08:12:07.247Z,9.70
2022-12-26T08:14:42.150Z,9.27
2022-12-26T08:17:17.610Z,8.82
2022-12-26T08:19:52.226Z,11.88
2022-12-26T08:22:28.580Z,11.13
2022-12-26T08:27:43.159Z,8.90
2022-12-26T08:32:51.390Z,8.98
2022-12-26T08:35:27.342Z,10.10
2022-12-26T08:38:02.031Z,10.25
2022-12-26T08:40:44.001Z,8.80
2022-12-26T08:44:16.091Z,8.70
2022-12-26T08:46:15.153Z,10.05
2022-12-26T08:48:50.327Z,8.75
2022-12-26T08:51:25.863Z,10.13
2022-12-26T08:54:00.580Z,13.25
2022-12-26T08:56:40.556Z,9.02
2022-12-26T08:59:16.913Z,12.10
2022-12-26T09:01:52.175Z,10.07
2022-12-26T09:04:26.942Z,8.10
2022-12-26T09:07:02.411Z,9.40
2022-12-26T09:09:37.747Z,10.32
2022-12-26T09:12:15.738Z,9.90
2022-12-26T09:14:51.583Z,9.15
2022-12-26T09:17:28.226Z,8.90
2022-12-26T09:20:04.340Z,6.88
2022-12-26T09:25:29.638Z,8.40
2022-12-26T09:28:08.815Z,10.60
2022-12-26T09:30:45.222Z,8.15
2022-12-26T09:33:22.594Z,9.13
2022-12-26T09:36:03.329Z,9.60
2022-12-26T09:38:39.756Z,9.15
2022-12-26T09:41:34.811Z,6.95
2022-12-26T09:44:16.450Z,7.97
2022-12-26T09:46:54.760Z,9.35
2022-12-26T09:49:32.101Z,10.55
2022-12-26T09:52:10.608Z,9.68
2022-12-26T09:54:48.618Z,7.75
2022-12-26T09:57:25.777Z,8.33
2022-12-26T10:00:06.082Z,8.50
2022-12-26T10:05:26.145Z,8.90
2022-12-26T10:08:02.560Z,10.75
2022-12-26T10:10:41.276Z,8.87
2022-12-26T10:13:20.974Z,8.98
2022-12-26T10:16:01.191Z,8.75
2022-12-26T10:18:38.569Z,7.88
2022-12-26T10:21:24.323Z,8.20
2022-12-26T10:23:59.977Z,8.57
2022-12-26T10:26:36.522Z,7.37
2022-12-26T10:29:15.873Z,8.20
2022-12-26T10:31:55.733Z,7.28
2022-12-26T10:34:32.674Z,9.55
2022-12-26T10:37:15.368Z,8.93
2022-12-26T10:39:51.944Z,8.55
2022-12-26T10:42:28.862Z,8.67
2022-12-26T10:45:03.907Z,7.67
2022-12-26T10:47:42.835Z,8.43
2022-12-26T10:50:26.992Z,8.20
2022-12-26T10:53:04.173Z,7.15
2022-12-26T10:55:39.523Z,8.48
2022-12-26T10:58:19.084Z,8.35
2022-12-26T11:00:54.523Z,8.80
2022-12-26T11:03:34.265Z,8.30
2022-12-26T11:06:09.863Z,8.25
2022-12-26T11:08:50.137Z,7.43
2022-12-26T11:11:26.288Z,10.03
2022-12-26T11:14:03.589Z,6.97
2022-12-26T11:16:42.360Z,8.25
2022-12-26T11:19:35.792Z,8.10
2022-12-26T11:22:26.664Z,7.93
2022-12-26T11:25:18.752Z,8.25
2022-12-26T11:27:57.369Z,6.05
2022-12-26T11:30:34.219Z,7.30
2022-12-26T11:33:19.318Z,7.10
2022-12-26T11:35:58.322Z,8.13
2022-12-26T11:38:44.809Z,5.93
2022-12-26T11:41:37.080Z,8.80
2022-12-26T11:44:26.975Z,6.53
2022-12-26T11:47:03.489Z,7.72
2022-12-26T11:49:39.920Z,9.30
2022-12-26T11:52:51.986Z,8.38
2022-12-26T11:55:34.137Z,8.13
2022-12-26T11:58:20.708Z,7.07
2022-12-26T12:01:19.237Z,8.00
2022-12-26T12:03:58.337Z,7.55
2022-12-26T12:07:06.993Z,7.90
2022-12-26T12:09:44.218Z,9.20
2022-12-26T12:12:25.958Z,7.90
2022-12-26T12:15:07.160Z,8.30
2022-12-26T12:17:44.634Z,6.40
2022-12-26T12:20:30.499Z,6.80
2022-12-26T12:23:15.788Z,8.90
2022-12-26T12:25:58.072Z,8.05
2022-12-26T12:29:02.374Z,10.25
2022-12-26T12:31:42.678Z,7.50
2022-12-26T12:34:23.303Z,9.50
2022-12-26T12:37:03.295Z,9.90
2022-12-26T12:39:43.442Z,8.57
2022-12-26T12:42:27.107Z,8.45
2022-12-26T12:45:18.800Z,12.53
2022-12-26T12:47:58.083Z,9.07
2022-12-26T12:50:34.107Z,11.35
2022-12-26T12:55:52.712Z,6.95
2022-12-26T12:58:30.444Z,8.43
2022-12-26T13:01:15.024Z,12.20
2022-12-26T13:03:51.263Z,8.75
2022-12-26T13:06:28.317Z,7.03
2022-12-26T13:09:04.441Z,9.15
2022-12-26T13:11:40.202Z,6.95
2022-12-26T13:14:17.811Z,7.72
2022-12-26T13:16:59.092Z,9.82
2022-12-26T13:19:39.348Z,7.60
2022-12-26T13:22:17.965Z,8.10
2022-12-26T13:24:52.385Z,9.65
2022-12-26T13:27:29.333Z,9.80
2022-12-26T13:30:03.520Z,6.82
2022-12-26T13:32:46.792Z,6.90
2022-12-26T13:35:51.699Z,8.50
2022-12-26T13:38:25.711Z,7.80
2022-12-26T13:41:24.755Z,8.45
2022-12-26T13:44:26.587Z,8.90
2022-12-26T13:47:02.287Z,8.40
2022-12-26T13:49:42.029Z,9.52
2022-12-26T13:52:36.932Z,7.30
2022-12-26T13:55:44.698Z,6.28
2022-12-26T13:58:49.783Z,7.30
2022-12-26T14:01:34.326Z,6.85
2022-12-26T14:04:27.511Z,8.57
2022-12-26T14:07:16.850Z,7.97
2022-12-26T14:10:01.884Z,7.32
2022-12-26T14:12:47.128Z,8.40
2022-12-26T14:15:33.561Z,8.25
2022-12-26T14:21:05.285Z,9.15
2022-12-26T14:23:48.347Z,7.63
2022-12-26T14:26:30.632Z,9.38
2022-12-26T14:29:08.285Z,7.20
2022-12-26T14:31:45.183Z,7.22
2022-12-26T14:34:27.263Z,7.95
2022-12-26T14:37:08.228Z,9.60
2022-12-26T14:39:50.244Z,8.07
2022-12-26T14:42:40.760Z,8.40
2022-12-26T14:45:46.922Z,6.55
2022-12-26T14:48:43.264Z,6.53
2022-12-26T14:51:36.533Z,7.03
2022-12-26T14:54:36.994Z,7.40
2022-12-26T14:57:10.612Z,7.00
2022-12-26T14:59:49.305Z,7.75
2022-12-26T15:02:35.375Z,7.32
2022-12-26T15:05:14.316Z,8.45
2022-12-26T15:08:10.698Z,10.30
2022-12-26T15:10:41.457Z,7.55
2022-12-26T15:13:59.984Z,7.70
2022-12-26T15:16:44.546Z,8.20
2022-12-26T15:19:49.740Z,7.67
2022-12-26T15:23:09.269Z,10.85
2022-12-26T15:26:13.902Z,7.37
2022-12-26T15:29:22.752Z,8.93
2022-12-26T15:31:56.389Z,7.00
2022-12-26T15:34:51.493Z,7.35
2022-12-26T15:37:45.452Z,10.50
2022-12-26T15:40:25.215Z,8.98
2022-12-26T15:43:19.402Z,7.85
2022-12-26T15:45:56.155Z,9.32
2022-12-26T15:48:38.563Z,7.45
2022-12-26T15:51:17.863Z,7.47
2022-12-26T15:54:00.428Z,9.13
2022-12-26T15:56:58.033Z,7.30
2022-12-26T15:59:45.990Z,7.57
2022-12-26T16:02:36.018Z,7.78
2022-12-26T16:05:31.099Z,7.50
2022-12-26T16:08:29.380Z,7.05
2022-12-26T16:11:16.852Z,8.82
2022-12-26T16:13:54.706Z,8.13
2022-12-26T16:16:31.921Z,9.85
2022-12-26T16:19:19.531Z,7.13
2022-12-26T16:22:11.158Z,9.43
2022-12-26T16:24:48.701Z,10.30
2022-12-26T16:27:24.151Z,9.00
2022-12-26T16:30:00.204Z,8.90
2022-12-26T16:32:35.354Z,7.30
2022-12-26T16:35:10.104Z,7.47
2022-12-26T16:37:44.688Z,7.60
2022-12-26T16:40:38.167Z,10.20
2022-12-26T16:43:31.111Z,10.05
2022-12-26T16:46:06.461Z,5.60
2022-12-26T16:48:41.696Z,5.93
2022-12-26T16:51:38.142Z,6.80
2022-12-26T16:54:08.501Z,6.90
2022-12-26T16:56:46.097Z,7.43
2022-12-26T16:59:21.255Z,10.20
2022-12-26T17:01:57.704Z,8.33
2022-12-26T17:04:32.959Z,10.05
2022-12-26T17:07:06.777Z,8.05
2022-12-26T17:09:44.339Z,9.35
2022-12-26T17:12:25.602Z,8.55
2022-12-26T17:15:00.832Z,7.43
2022-12-26T17:17:36.931Z,7.60
2022-12-26T17:23:00.194Z,8.15
2022-12-26T17:25:37.257Z,9.13
2022-12-26T17:28:30.581Z,14.15
2022-12-26T17:31:14.243Z,9.75
2022-12-26T17:33:48.230Z,8.32
2022-12-26T17:37:08.110Z,6.53
2022-12-26T17:39:22.308Z,8.27
2022-12-26T17:41:58.814Z,8.85
2022-12-26T17:44:40.464Z,7.70
2022-12-26T17:47:18.625Z,7.40
2022-12-26T17:49:54.617Z,9.80
2022-12-26T17:55:06.313Z,10.45
2022-12-26T17:57:41.288Z,10.70
2022-12-26T18:00:23.350Z,14.20
2022-12-26T18:02:57.418Z,12.80
2022-12-26T18:05:32.225Z,12.45
2022-12-26T18:08:07.383Z,9.05
2022-12-26T18:10:41.605Z,9.17
2022-12-26T18:13:19.134Z,7.20
2022-12-26T18:15:56.649Z,7.38
2022-12-26T18:18:35.759Z,9.93
2022-12-26T18:21:11.362Z,8.35
2022-12-26T18:23:45.869Z,6.80
2022-12-26T18:26:23.629Z,6.45
2022-12-26T18:28:59.275Z,9.10
2022-12-26T18:31:36.344Z,6.13
2022-12-26T18:34:10.733Z,6.28
2022-12-26T18:36:47.056Z,8.13
2022-12-26T18:39:21.187Z,8.40
2022-12-26T18:41:55.733Z,7.05
2022-12-26T18:44:30.642Z,6.55
2022-12-26T18:47:08.772Z,6.57
2022-12-26T18:49:44.114Z,7.20
2022-12-26T18:52:18.685Z,9.30
2022-12-26T18:54:53.321Z,8.70
2022-12-26T18:57:27.409Z,6.72
2022-12-26T19:00:01.289Z,5.05
2022-12-26T19:02:38.704Z,5.75
2022-12-26T19:05:18.723Z,4.82
2022-12-26T19:07:53.608Z,5.05
2022-12-26T19:10:30.649Z,4.60
2022-12-26T19:13:06.502Z,5.00
2022-12-26T19:15:41.165Z,4.78
2022-12-26T19:18:18.858Z,5.15
2022-12-26T19:20:54.108Z,7.68
2022-12-26T19:23:28.134Z,5.30
2022-12-26T19:26:02.131Z,7.90
2022-12-26T19:28:36.464Z,7.65
2022-12-26T19:31:11.421Z,10.18
2022-12-26T19:33:49.552Z,8.27
2022-12-26T19:36:24.603Z,8.63
2022-12-26T19:38:59.426Z,9.05
2022-12-26T19:41:33.677Z,7.05
2022-12-26T19:44:08.730Z,9.48
2022-12-26T19:46:43.626Z,5.93
2022-12-26T19:49:21.090Z,6.30
2022-12-26T19:51:55.272Z,5.90
2022-12-26T19:54:30.026Z,8.10
2022-12-26T19:57:05.827Z,8.10
2022-12-26T19:59:42.620Z,6.10
2022-12-26T20:02:18.720Z,8.77
2022-12-26T20:04:57.549Z,6.67
2022-12-26T20:07:33.285Z,7.37
2022-12-26T20:10:09.447Z,7.22
2022-12-26T20:12:46.065Z,5.70
2022-12-26T20:15:21.474Z,5.07
2022-12-26T20:17:57.112Z,5.60
2022-12-26T20:20:35.196Z,4.90
2022-12-26T20:23:07.400Z,8.07
2022-12-26T20:25:42.852Z,9.25
2022-12-26T20:28:18.150Z,7.87
2022-12-26T20:31:02.665Z,6.43
2022-12-26T20:33:38.960Z,7.60
2022-12-26T20:36:18.599Z,8.15
2022-12-26T20:38:57.101Z,6.65
2022-12-26T20:41:34.086Z,7.45
2022-12-26T20:44:09.519Z,6.70
2022-12-26T20:46:47.757Z,5.65
2022-12-26T20:49:23.632Z,7.55
2022-12-26T20:52:04.971Z,6.25
2022-12-26T20:54:42.214Z,8.38
2022-12-26T20:57:18.438Z,6.70
2022-12-26T21:02:30.240Z,8.90
2022-12-26T21:05:07.350Z,9.60
2022-12-26T21:07:47.850Z,6.68
2022-12-26T21:10:24.033Z,7.22
2022-12-26T21:13:01.280Z,7.95
2022-12-26T21:15:38.162Z,7.72
2022-12-26T21:18:16.579Z,6.60
2022-12-26T21:20:51.721Z,7.32
2022-12-26T21:23:30.896Z,7.87
2022-12-26T21:26:06.013Z,6.82
2022-12-26T21:28:42.477Z,9.13
2022-12-26T21:31:17.774Z,7.70
2022-12-26T21:33:54.820Z,6.70
2022-12-26T21:36:32.075Z,7.70
2022-12-26T21:39:15.182Z,7.95
2022-12-26T21:41:51.315Z,7.70
2022-12-26T21:46:59.984Z,9.00
2022-12-26T21:49:35.440Z,7.18
2022-12-26T21:52:11.274Z,7.80
2022-12-26T21:55:01.620Z,7.93
2022-12-26T21:57:38.904Z,10.90
2022-12-26T22:00:16.124Z,10.15
2022-12-26T22:03:04.179Z,10.30
2022-12-26T22:05:39.874Z,9.95
2022-12-26T22:08:15.722Z,7.40
2022-12-26T22:11:08.032Z,9.30
2022-12-26T22:13:46.213Z,9.55
2022-12-26T22:16:20.921Z,9.18
2022-12-26T22:18:58.601Z,9.80
2022-12-26T22:21:38.364Z,8.45
2022-12-26T22:24:15.623Z,8.38
2022-12-26T22:26:57.115Z,7.75
2022-12-26T22:29:33.330Z,8.90
2022-12-26T22:32:08.805Z,8.70
2022-12-26T22:34:50.299Z,9.68
2022-12-26T22:37:24.723Z,7.85
2022-12-26T22:40:01.291Z,7.53
2022-12-26T22:42:40.061Z,6.80
2022-12-26T22:45:15.839Z,6.85
2022-12-26T22:47:50.811Z,5.78
2022-12-26T22:50:26.033Z,6.30
2022-12-26T22:53:05.214Z,5.00
2022-12-26T22:55:48.893Z,6.60
2022-12-26T22:58:27.254Z,5.22
2022-12-26T23:01:01.900Z,7.65
2022-12-26T23:03:37.818Z,7.50
2022-12-26T23:06:21.804Z,6.30
2022-12-26T23:08:57.012Z,4.47
2022-12-26T23:11:36.375Z,7.97
2022-12-26T23:14:16.333Z,5.53
2022-12-26T23:16:53.655Z,3.25
2022-12-26T23:19:52.442Z,4.50
2022-12-26T23:22:29.967Z,4.35
2022-12-26T23:25:05.570Z,3.85
2022-12-26T23:27:53.250Z,2.80
2022-12-26T23:30:31.898Z,2.80
2022-12-26T23:33:10.608Z,3.92
2022-12-26T23:35:46.239Z,4.77
2022-12-26T23:38:21.829Z,2.85
2022-12-26T23:41:02.098Z,3.50
2022-12-26T23:43:37.664Z,2.75
2022-12-26T23:46:16.850Z,3.10
2022-12-26T23:48:53.964Z,3.53
2022-12-26T23:51:30.074Z,3.50
2022-12-26T23:56:42.853Z,2.10
2022-12-26T23:59:17.820Z,2.92
